Alvord, Texas
Current Conditions -  °F | °C
As of 8:35 PM on Sunday 23 Nov 2014 (Local Time) from KLUD Reporting Station
Broken Clouds Broken Clouds  
Wind Chill: 44°   Ceiling: 3300
Heat Index: 49°   Visibility: 10mi
Dew Point: 38°   Wind: 13mph
Humidity: 65%   Direction: 320°NW
Pressure: 29.74"   Gusts: 25mph
Location:  33.36°N, 97.69°W
Report Text: KLUD 240235Z AUTO 32011G22KT 10SM BKN033 10/03 A2974 RMK AO2 T00950033
Loading
Personal Weather Stations






























Interactive Weather Map New forecast layout! Learn more

10-Day Weather Forecast

Advertisements
Track Severe Weather on mobile